createdAt,value
2018-05-21T00:05:45.995Z,1013.01
2018-05-21T00:15:45.994Z,1012.89
2018-05-21T00:25:46.075Z,1012.83
2018-05-21T00:35:45.991Z,1012.8
2018-05-21T00:45:46.008Z,1012.77
2018-05-21T00:55:45.992Z,1012.72
2018-05-21T01:05:45.982Z,1012.58
2018-05-21T01:15:46.068Z,1012.56
2018-05-21T01:25:46.041Z,1012.49
2018-05-21T01:35:45.992Z,1012.43
2018-05-21T01:45:45.993Z,1012.5
2018-05-21T01:55:45.985Z,1012.41
2018-05-21T02:05:45.979Z,1012.36
2018-05-21T02:15:45.979Z,1012.36
2018-05-21T02:25:45.983Z,1012.31
2018-05-21T02:35:45.975Z,1012.33
2018-05-21T02:45:45.973Z,1012.31
2018-05-21T02:55:45.986Z,1012.26
2018-05-21T03:05:45.973Z,1012.11
2018-05-21T03:15:45.977Z,1012.08
2018-05-21T03:25:45.970Z,1012.05
2018-05-21T03:35:45.973Z,1011.94
2018-05-21T03:45:45.972Z,1011.97
2018-05-21T03:55:45.964Z,1011.85
2018-05-21T04:05:45.983Z,1011.88
2018-05-21T04:15:45.984Z,1011.83
2018-05-21T04:25:45.991Z,1011.85
2018-05-21T04:35:45.983Z,1011.87
2018-05-21T04:45:45.979Z,1011.81
2018-05-21T04:55:45.983Z,1011.73
2018-05-21T05:05:45.977Z,1011.78
2018-05-21T05:15:45.978Z,1011.83
2018-05-21T05:25:45.965Z,1011.68
2018-05-21T05:35:45.971Z,1011.74
2018-05-21T05:45:45.970Z,1011.71
2018-05-21T05:55:45.967Z,1011.55
2018-05-21T06:05:45.987Z,1011.68
2018-05-21T06:15:45.981Z,1011.61
2018-05-21T06:25:46.064Z,1011.73
2018-05-21T06:35:45.997Z,1011.75
2018-05-21T06:45:45.996Z,1011.69
2018-05-21T06:55:45.971Z,1011.59
2018-05-21T07:05:45.992Z,1011.54
2018-05-21T07:15:45.996Z,1011.49
2018-05-21T07:25:46.001Z,1011.48
2018-05-21T07:35:45.994Z,1011.34
2018-05-21T07:45:46.016Z,1011.26
2018-05-21T07:55:46.028Z,1011.2
2018-05-21T08:05:46.018Z,1011.15
2018-05-21T08:15:46.030Z,1011.09
2018-05-21T08:25:46.037Z,1010.98
2018-05-21T08:35:46.032Z,1010.87
2018-05-21T08:45:46.752Z,1010.83
2018-05-21T08:55:46.086Z,1010.58
2018-05-21T09:05:46.036Z,1010.49
2018-05-21T09:15:46.066Z,1010.37
2018-05-21T09:25:46.053Z,1010.36
2018-05-21T09:35:46.150Z,1010.26
2018-05-21T09:45:46.055Z,1010.15
2018-05-21T09:55:46.045Z,1010.12
2018-05-21T10:05:46.028Z,1009.92
2018-05-21T10:15:46.060Z,1009.71
2018-05-21T10:25:46.068Z,1009.7
2018-05-21T10:35:46.039Z,1009.49
2018-05-21T10:45:46.039Z,1009.42
2018-05-21T10:55:46.060Z,1009.3
2018-05-21T11:05:46.075Z,1009.19
2018-05-21T11:15:46.184Z,1009.04
2018-05-21T11:25:46.065Z,1008.92
2018-05-21T11:35:46.060Z,1008.85
2018-05-21T11:45:46.071Z,1008.6
2018-05-21T11:55:46.094Z,1008.44
2018-05-21T12:05:46.072Z,1008.4
2018-05-21T12:15:46.088Z,1008.28
2018-05-21T12:25:48.553Z,1008.26
2018-05-21T12:35:46.155Z,1008.17
2018-05-21T12:45:46.158Z,1008.07
2018-05-21T12:55:46.069Z,1008.04
2018-05-21T13:05:46.090Z,1007.99
2018-05-21T13:15:46.095Z,1008.06
2018-05-21T13:25:46.077Z,1008.04
2018-05-21T13:35:46.098Z,1007.66
2018-05-21T13:45:46.082Z,1007.66
2018-05-21T13:55:46.116Z,1007.58
2018-05-21T14:05:46.162Z,1007.49
2018-05-21T14:15:46.110Z,1007.26
2018-05-21T14:25:46.098Z,1007.13
2018-05-21T14:35:46.134Z,1007.03
2018-05-21T14:45:46.102Z,1006.92
2018-05-21T14:55:46.125Z,1006.85
2018-05-21T15:05:46.298Z,1006.75
2018-05-21T15:15:46.107Z,1006.6
2018-05-21T15:25:46.099Z,1006.46
2018-05-21T15:35:46.119Z,1006.38
2018-05-21T15:45:46.122Z,1006.46
2018-05-21T15:55:46.105Z,1006.26
2018-05-21T16:05:46.127Z,1006.24
2018-05-21T16:15:46.139Z,1006.18
2018-05-21T16:25:46.155Z,1006.14
2018-05-21T16:35:46.108Z,1006.1
2018-05-21T16:45:46.125Z,1006.02
2018-05-21T16:55:46.137Z,1006.01
2018-05-21T17:05:46.147Z,1006.05
2018-05-21T17:15:46.137Z,1005.97
2018-05-21T17:25:46.145Z,1005.85
2018-05-21T17:35:46.232Z,1005.87
2018-05-21T17:45:46.151Z,1005.85
2018-05-21T17:55:46.116Z,1005.82
2018-05-21T18:05:46.278Z,1005.85
2018-05-21T18:15:46.155Z,1005.84
2018-05-21T18:25:46.124Z,1005.85
2018-05-21T18:35:46.185Z,1005.86
2018-05-21T18:45:46.256Z,1005.89
2018-05-21T18:55:46.137Z,1005.95
2018-05-21T19:05:46.157Z,1006.01
2018-05-21T19:15:46.185Z,1006
2018-05-21T19:25:46.152Z,1006
2018-05-21T19:35:46.155Z,1006.1
2018-05-21T19:45:46.176Z,1006.11
2018-05-21T19:55:46.197Z,1006.17
2018-05-21T20:05:46.151Z,1006.2
2018-05-21T20:15:46.144Z,1006.16
2018-05-21T20:25:46.183Z,1006.16
2018-05-21T20:35:46.165Z,1006.21
2018-05-21T20:45:46.151Z,1006.25
2018-05-21T20:55:46.151Z,1006.2
2018-05-21T21:05:46.155Z,1006.23
2018-05-21T21:15:46.219Z,1006.26
2018-05-21T21:25:46.802Z,1006.16
2018-05-21T21:35:46.134Z,1006.13
2018-05-21T21:45:46.168Z,1006.1
2018-05-21T21:55:46.188Z,1006.02
2018-05-21T22:05:46.156Z,1005.97
2018-05-21T22:15:46.171Z,1005.96
2018-05-21T22:25:46.145Z,1005.81
2018-05-21T22:35:46.172Z,1005.72
2018-05-21T22:45:46.159Z,1005.57
2018-05-21T22:55:46.164Z,1005.54
2018-05-21T23:05:46.160Z,1005.44
2018-05-21T23:15:46.165Z,1005.4
2018-05-21T23:25:46.208Z,1005.39
2018-05-21T23:35:46.141Z,1005.32
2018-05-21T23:45:46.139Z,1005.32
2018-05-21T23:55:46.175Z,1005.3
